Time;durP1;ratioP1;P1;durP2;ratioP2;P2;SDS_P1;SDS_P2;PMS_P1;PMS_P2;Temp;Humidity;BMP_temperature;BMP_pressure;BME280_temperature;BME280_humidity;BME280_pressure;Samples;Min_cycle;Max_cycle;Signal;HPM_P1;HPM_P2
2021/10/23 00:02:07;;;;;;;7.63;2.00;;;;;;;7.55;nan;100727.75;5052897;28;20266;-69
2021/10/23 00:04:32;;;;;;;7.27;1.40;;;;;;;7.44;nan;100722.88;5052886;28;20199;-69
2021/10/23 00:06:58;;;;;;;9.53;1.53;;;;;;;7.51;nan;100741.16;5052048;28;20190;-69
2021/10/23 00:09:23;;;;;;;15.37;2.03;;;;;;;7.54;nan;100737.50;5052782;28;20182;-68
2021/10/23 00:11:49;;;;;;;7.80;1.60;;;;;;;7.54;nan;100734.84;5052990;28;20272;-68
2021/10/23 00:14:14;;;;;;;8.80;1.37;;;;;;;7.49;nan;100728.88;5052840;28;20191;-69
2021/10/23 00:16:39;;;;;;;9.73;1.80;;;;;;;7.39;nan;100727.50;5056092;28;20171;-69
2021/10/23 00:19:05;;;;;;;7.27;1.83;;;;;;;7.50;nan;100733.25;5056917;28;20179;-68
2021/10/23 00:21:31;;;;;;;13.33;1.90;;;;;;;7.48;nan;100741.28;5056718;28;20180;-69
2021/10/23 00:23:56;;;;;;;13.20;1.90;;;;;;;7.37;nan;100767.38;5056602;28;20605;-68
2021/10/23 00:26:21;;;;;;;11.30;1.77;;;;;;;7.44;nan;100742.34;5056966;28;20633;-69
2021/10/23 00:28:46;;;;;;;10.37;2.00;;;;;;;7.37;nan;100755.91;5056964;28;20184;-69
2021/10/23 00:31:12;;;;;;;10.33;2.13;;;;;;;7.41;nan;100729.16;5057886;28;20195;-69
2021/10/23 00:33:38;;;;;;;10.77;1.77;;;;;;;7.35;nan;100732.06;5056471;28;20199;-66
2021/10/23 00:36:03;;;;;;;8.13;1.63;;;;;;;7.46;nan;100771.47;5055497;28;20168;-67
2021/10/23 00:38:29;;;;;;;14.07;2.23;;;;;;;7.47;nan;100757.28;5057150;28;20171;-67
2021/10/23 00:40:54;;;;;;;9.97;1.70;;;;;;;7.37;nan;100780.66;5055641;28;20223;-67
2021/10/23 00:43:19;;;;;;;11.77;1.70;;;;;;;7.45;nan;100762.66;5056095;28;20199;-68
2021/10/23 00:45:45;;;;;;;9.97;2.00;;;;;;;7.47;nan;100776.72;5055151;28;20175;-67
2021/10/23 00:48:10;;;;;;;10.40;1.33;;;;;;;7.52;nan;100760.59;5056458;28;20172;-67
2021/10/23 00:50:36;;;;;;;7.97;1.37;;;;;;;7.62;nan;100755.75;5055102;28;20187;-67
2021/10/23 00:53:01;;;;;;;9.70;1.70;;;;;;;7.56;nan;100761.34;5054879;28;20203;-67
2021/10/23 00:55:27;;;;;;;13.63;2.07;;;;;;;7.48;nan;100780.25;5055174;28;20259;-67
2021/10/23 00:57:53;;;;;;;5.13;1.27;;;;;;;7.56;nan;100759.53;5037961;28;20176;-67
2021/10/23 01:00:18;;;;;;;10.63;1.90;;;;;;;7.55;nan;100764.91;5054587;28;20205;-67
2021/10/23 01:02:43;;;;;;;8.80;1.60;;;;;;;7.51;nan;100767.72;5055790;28;20687;-67
2021/10/23 01:05:09;;;;;;;10.47;1.77;;;;;;;7.51;nan;100788.94;5054557;28;20175;-68
2021/10/23 01:07:35;;;;;;;8.50;1.50;;;;;;;7.54;nan;100790.63;5037877;28;20229;-68
2021/10/23 01:10:03;;;;;;;9.90;2.43;;;;;;;7.51;nan;100780.97;5056000;28;20168;-67
2021/10/23 01:12:29;;;;;;;10.77;1.90;;;;;;;7.45;nan;100775.06;5054328;28;20198;-67
2021/10/23 01:14:54;;;;;;;9.13;1.70;;;;;;;7.36;nan;100780.72;5054309;28;20172;-67
2021/10/23 01:17:24;;;;;;;10.80;1.57;;;;;;;7.46;nan;100801.56;5054324;28;20263;-67
2021/10/23 01:19:51;;;;;;;7.67;1.40;;;;;;;7.44;nan;100810.50;5055476;28;20663;-67
2021/10/23 01:22:24;;;;;;;11.40;2.13;;;;;;;7.59;nan;100804.56;5054601;28;20164;-67
2021/10/23 01:24:49;;;;;;;10.73;1.70;;;;;;;7.41;nan;100827.41;5054198;28;20164;-67
2021/10/23 01:27:14;;;;;;;6.77;1.60;;;;;;;7.49;nan;100803.22;5054939;28;20182;-67
2021/10/23 01:29:40;;;;;;;13.87;2.03;;;;;;;7.49;nan;100821.81;5054407;28;20671;-67
2021/10/23 01:32:05;;;;;;;10.43;2.20;;;;;;;7.43;nan;100840.63;5055483;28;20199;-67
2021/10/23 01:34:30;;;;;;;8.93;2.17;;;;;;;7.53;nan;100799.50;5053878;28;20202;-67
2021/10/23 01:36:59;;;;;;;8.23;1.80;;;;;;;7.51;nan;100814.66;5053951;28;20194;-67
2021/10/23 01:39:26;;;;;;;7.10;1.37;;;;;;;7.52;nan;100811.06;5037510;28;20186;-68
2021/10/23 01:41:55;;;;;;;11.27;2.50;;;;;;;7.54;nan;100835.75;5054932;28;20175;-69
2021/10/23 01:44:25;;;;;;;7.93;1.73;;;;;;;7.71;nan;100843.91;5036893;28;20589;-68
2021/10/23 01:46:51;;;;;;;8.07;2.10;;;;;;;7.66;nan;100827.28;5053710;28;20251;-69
2021/10/23 01:49:16;;;;;;;11.50;1.87;;;;;;;7.50;nan;100826.19;5053701;28;20194;-69
2021/10/23 01:51:41;;;;;;;9.03;1.43;;;;;;;7.62;nan;100846.06;5054062;28;20245;-68
2021/10/23 01:54:09;;;;;;;8.87;1.60;;;;;;;7.47;nan;100847.56;5055094;28;20191;-69
2021/10/23 01:56:36;;;;;;;7.80;1.80;;;;;;;7.59;nan;100846.19;5037464;28;20175;-68
2021/10/23 01:59:01;;;;;;;14.13;2.03;;;;;;;7.60;nan;100850.59;5054117;28;20186;-68
2021/10/23 02:01:27;;;;;;;13.30;2.10;;;;;;;7.46;nan;100846.69;5037094;28;20172;-67
2021/10/23 02:03:52;;;;;;;9.57;2.07;;;;;;;7.46;nan;100832.56;5053703;28;20204;-67
2021/10/23 02:06:18;;;;;;;10.23;2.10;;;;;;;7.57;nan;100848.06;5053501;28;20172;-66
2021/10/23 02:08:43;;;;;;;7.90;2.10;;;;;;;7.66;nan;100853.00;5036691;28;20176;-67
2021/10/23 02:11:08;;;;;;;7.70;1.60;;;;;;;7.54;nan;100870.28;5053196;28;20665;-67
2021/10/23 02:13:34;;;;;;;10.23;1.73;;;;;;;7.57;nan;100846.25;5054448;28;20192;-67
2021/10/23 02:15:59;;;;;;;14.07;2.10;;;;;;;7.51;nan;100854.47;5053246;28;20172;-67
2021/10/23 02:18:25;;;;;;;8.90;1.70;;;;;;;7.39;nan;100849.63;5053483;28;20178;-67
2021/10/23 02:20:50;;;;;;;9.17;1.43;;;;;;;7.49;nan;100848.38;5054835;28;20172;-67
2021/10/23 02:23:15;;;;;;;10.90;2.80;;;;;;;7.52;nan;100867.69;5055718;28;20284;-67
2021/10/23 02:25:40;;;;;;;13.17;3.03;;;;;;;7.56;nan;100872.88;5055248;28;20182;-67
2021/10/23 02:28:06;;;;;;;8.87;1.90;;;;;;;7.52;nan;100877.47;5054372;28;20179;-68
2021/10/23 02:30:31;;;;;;;12.93;2.07;;;;;;;7.42;nan;100876.06;5053020;28;20179;-68
2021/10/23 02:32:56;;;;;;;7.13;1.87;;;;;;;7.42;nan;100894.66;5053961;28;20246;-67
2021/10/23 02:35:22;;;;;;;14.40;2.13;;;;;;;7.50;nan;100879.31;5053998;28;20172;-68
2021/10/23 02:37:47;;;;;;;11.73;2.73;;;;;;;7.84;nan;100890.31;5053271;28;20176;-68
2021/10/23 02:40:12;;;;;;;10.73;1.90;;;;;;;7.83;nan;100893.91;5052798;28;20248;-67
2021/10/23 02:42:38;;;;;;;7.83;1.93;;;;;;;7.73;nan;100886.34;5053884;28;20207;-67
2021/10/23 02:45:05;;;;;;;12.07;2.03;;;;;;;7.65;nan;100896.41;5054126;28;20190;-67
2021/10/23 02:47:31;;;;;;;11.43;2.13;;;;;;;7.69;nan;100898.88;5052608;28;20175;-67
2021/10/23 02:49:56;;;;;;;8.23;1.90;;;;;;;7.73;nan;100891.66;5053741;28;20641;-67
2021/10/23 02:52:21;;;;;;;5.63;2.00;;;;;;;7.65;nan;100910.56;5053828;28;20191;-67
2021/10/23 02:54:47;;;;;;;18.40;2.40;;;;;;;7.68;nan;100912.22;5052594;28;20267;-66
2021/10/23 02:57:12;;;;;;;12.40;2.00;;;;;;;7.70;nan;100908.59;5054050;28;20254;-67
2021/10/23 02:59:40;;;;;;;15.47;2.33;;;;;;;7.86;nan;100923.94;5052344;28;20186;-67
2021/10/23 03:02:05;;;;;;;14.23;2.83;;;;;;;7.85;nan;100939.00;5053604;28;20179;-67
2021/10/23 03:04:30;;;;;;;13.53;2.23;;;;;;;7.78;nan;100922.44;5052226;28;20192;-67
2021/10/23 03:06:56;;;;;;;16.57;2.40;;;;;;;7.86;nan;100915.97;5052105;28;20649;-67
2021/10/23 03:09:22;;;;;;;14.50;2.47;;;;;;;7.89;nan;100937.09;5052036;28;20176;-67
2021/10/23 03:11:47;;;;;;;12.20;2.43;;;;;;;7.69;nan;100937.88;5052195;28;20271;-68
2021/10/23 03:14:13;;;;;;;9.97;1.93;;;;;;;7.76;nan;100958.81;5053379;28;20205;-67
2021/10/23 03:16:38;;;;;;;12.70;2.43;;;;;;;7.77;nan;100941.94;5053391;28;20580;-68
2021/10/23 03:19:03;;;;;;;14.17;2.13;;;;;;;7.88;nan;100951.31;5053596;28;20179;-67
2021/10/23 03:21:28;;;;;;;19.83;2.40;;;;;;;7.84;nan;100959.41;5035653;28;20195;-68
2021/10/23 03:23:54;;;;;;;10.13;2.33;;;;;;;7.71;nan;100958.16;5053061;28;20253;-68
2021/10/23 03:26:19;;;;;;;11.00;2.00;;;;;;;7.84;nan;100954.09;5053140;28;20645;-68
2021/10/23 03:28:44;;;;;;;10.87;2.10;;;;;;;7.98;nan;100960.63;5053413;28;20306;-68
2021/10/23 03:31:10;;;;;;;14.00;2.70;;;;;;;7.99;nan;100973.88;5052964;28;20175;-68
2021/10/23 03:33:35;;;;;;;10.63;2.30;;;;;;;7.93;nan;100949.34;5053191;28;20245;-67
2021/10/23 03:36:00;;;;;;;10.07;2.00;;;;;;;8.01;nan;100977.34;5052263;28;20233;-68
2021/10/23 03:38:25;;;;;;;11.87;2.33;;;;;;;8.15;nan;100982.09;5052368;28;20221;-67
2021/10/23 03:40:51;;;;;;;9.50;2.00;;;;;;;7.80;nan;100965.78;5052343;28;20664;-68
2021/10/23 03:43:16;;;;;;;12.30;2.27;;;;;;;7.74;nan;100978.41;5051954;28;20203;-67
2021/10/23 03:45:41;;;;;;;9.63;2.23;;;;;;;7.81;nan;100975.47;5051961;28;20226;-68
2021/10/23 03:48:07;;;;;;;10.63;1.80;;;;;;;7.99;nan;100995.13;5051639;28;20557;-68
2021/10/23 03:50:33;;;;;;;11.27;2.33;;;;;;;8.12;nan;101000.81;5051618;28;20175;-68
2021/10/23 03:52:58;;;;;;;10.90;1.70;;;;;;;8.33;nan;101020.38;5051352;28;20218;-68
2021/10/23 03:55:23;;;;;;;17.70;2.60;;;;;;;7.74;nan;101020.91;5034929;28;20176;-68
2021/10/23 03:57:49;;;;;;;11.77;2.03;;;;;;;8.18;nan;101035.16;5052790;28;20175;-68
2021/10/23 04:00:15;;;;;;;10.87;2.10;;;;;;;8.28;nan;101036.53;5053073;28;20650;-68
2021/10/23 04:02:40;;;;;;;17.10;2.53;;;;;;;8.34;nan;101038.97;5034787;28;20237;-68
2021/10/23 04:05:06;;;;;;;8.90;2.00;;;;;;;7.92;nan;101027.34;5052859;28;20234;-68
2021/10/23 04:07:31;;;;;;;13.83;2.47;;;;;;;8.00;nan;101017.25;5051474;28;20650;-68
2021/10/23 04:09:58;;;;;;;10.67;2.60;;;;;;;7.97;nan;101030.69;5051804;28;20186;-68
2021/10/23 04:12:23;;;;;;;11.53;1.57;;;;;;;7.80;nan;101026.88;5052528;28;20730;-68
2021/10/23 04:14:48;;;;;;;16.37;2.27;;;;;;;7.63;nan;101029.31;5052550;28;20176;-68
2021/10/23 04:17:14;;;;;;;14.27;2.63;;;;;;;7.82;nan;101040.13;5053377;28;20637;-67
2021/10/23 04:19:39;;;;;;;11.07;1.97;;;;;;;7.76;nan;101038.53;5052584;28;20208;-67
2021/10/23 04:22:05;;;;;;;12.77;2.30;;;;;;;7.77;nan;101032.28;5053322;28;20178;-67
2021/10/23 04:24:30;;;;;;;7.33;1.77;;;;;;;7.74;nan;101035.06;5052507;28;20721;-67
2021/10/23 04:26:56;;;;;;;9.13;2.37;;;;;;;7.51;nan;101030.63;5052046;28;20180;-66
2021/10/23 04:29:21;;;;;;;15.33;2.20;;;;;;;7.51;nan;101041.25;5052710;28;20641;-67
2021/10/23 04:31:47;;;;;;;18.30;2.60;;;;;;;7.52;nan;101047.44;5051600;28;20260;-67
2021/10/23 04:34:12;;;;;;;17.17;2.63;;;;;;;7.35;nan;101049.81;5051256;28;20217;-67
2021/10/23 04:36:38;;;;;;;20.70;2.50;;;;;;;7.35;nan;101052.47;5052493;28;20178;-67
2021/10/23 04:39:03;;;;;;;18.40;2.17;;;;;;;7.27;nan;101050.09;5053024;28;20653;-67
2021/10/23 04:41:28;;;;;;;14.23;1.93;;;;;;;7.19;nan;101055.69;5051620;28;20191;-67
2021/10/23 04:43:53;;;;;;;11.23;1.97;;;;;;;7.15;nan;101047.91;5052625;28;20203;-67
2021/10/23 04:46:19;;;;;;;13.97;2.40;;;;;;;7.21;nan;101059.16;5053005;28;20179;-67
2021/10/23 04:48:44;;;;;;;15.03;2.10;;;;;;;7.30;nan;101057.09;5052610;28;20182;-67
2021/10/23 04:51:10;;;;;;;13.53;1.80;;;;;;;7.33;nan;101055.19;5051172;28;20175;-67
2021/10/23 04:53:35;;;;;;;10.57;1.63;;;;;;;7.33;nan;101054.31;5052126;28;20222;-67
2021/10/23 04:56:00;;;;;;;12.70;2.57;;;;;;;7.22;nan;101062.69;5051044;28;20172;-68
2021/10/23 04:58:26;;;;;;;13.73;1.97;;;;;;;7.28;nan;101070.44;5052779;28;20236;-67
2021/10/23 05:00:51;;;;;;;16.53;2.77;;;;;;;7.38;nan;101052.38;5052452;28;20660;-68
2021/10/23 05:03:16;;;;;;;13.60;2.80;;;;;;;7.49;nan;101066.16;5054446;28;20195;-68
2021/10/23 05:05:41;;;;;;;16.60;2.90;;;;;;;7.45;nan;101057.44;5056027;28;20176;-68
2021/10/23 05:08:07;;;;;;;14.50;2.30;;;;;;;7.59;nan;101064.00;5055684;28;20653;-67
2021/10/23 05:10:32;;;;;;;9.30;2.10;;;;;;;7.44;nan;101071.63;5054460;28;20269;-67
2021/10/23 05:12:57;;;;;;;15.67;2.50;;;;;;;7.87;nan;101085.13;5054909;28;20215;-67
2021/10/23 05:15:24;;;;;;;8.87;1.60;;;;;;;7.78;nan;101087.16;5055595;28;20646;-67
2021/10/23 05:17:49;;;;;;;9.37;2.00;;;;;;;7.87;nan;101093.97;5055567;28;20167;-68
2021/10/23 05:20:14;;;;;;;15.40;2.43;;;;;;;7.80;nan;101074.72;5055903;28;20653;-66
2021/10/23 05:22:40;;;;;;;17.83;2.67;;;;;;;7.96;nan;101104.22;5055771;28;20196;-67
2021/10/23 05:25:05;;;;;;;11.10;2.00;;;;;;;7.92;nan;101091.13;5054268;28;20214;-67
2021/10/23 05:27:31;;;;;;;7.57;2.00;;;;;;;7.76;nan;101104.09;5054132;28;20180;-67
2021/10/23 05:29:57;;;;;;;11.90;2.33;;;;;;;7.65;nan;101085.91;5056479;28;20576;-68
2021/10/23 05:32:22;;;;;;;11.80;2.60;;;;;;;7.45;nan;101101.72;5054299;28;20199;-68
2021/10/23 05:34:48;;;;;;;16.47;2.83;;;;;;;7.27;nan;101105.88;5056170;28;20176;-67
2021/10/23 05:37:14;;;;;;;8.67;1.80;;;;;;;7.20;nan;101093.72;5054357;28;20179;-68
2021/10/23 05:39:39;;;;;;;13.77;2.43;;;;;;;7.13;nan;101114.31;5054565;28;20193;-67
2021/10/23 05:42:04;;;;;;;12.43;2.17;;;;;;;7.17;nan;101115.06;5054563;28;20168;-68
2021/10/23 05:44:30;;;;;;;17.47;2.10;;;;;;;7.15;nan;101122.22;5092329;22;20233;-74
2021/10/23 05:46:55;;;;;;;14.53;2.70;;;;;;;6.95;nan;101136.16;5055399;28;20175;-73
2021/10/23 05:49:20;;;;;;;12.90;2.83;;;;;;;7.02;nan;101132.38;5055190;28;20179;-74
2021/10/23 05:51:46;;;;;;;13.17;2.20;;;;;;;6.88;nan;101132.84;5055215;28;20206;-73
2021/10/23 05:54:12;;;;;;;18.43;2.20;;;;;;;6.83;nan;101141.88;5050635;28;20212;-74
2021/10/23 05:56:37;;;;;;;12.20;2.10;;;;;;;6.81;nan;101135.75;5035319;28;20277;-74
2021/10/23 05:59:12;;;;;;;14.90;2.53;;;;;;;6.87;nan;101141.72;5035594;28;20180;-73
2021/10/23 06:01:38;;;;;;;12.77;2.40;;;;;;;6.85;nan;101146.22;5052574;28;20178;-75
2021/10/23 06:04:03;;;;;;;13.20;2.23;;;;;;;6.82;nan;101166.66;5034228;28;20206;-74
2021/10/23 06:06:29;;;;;;;17.77;2.73;;;;;;;6.92;nan;101154.84;5033869;28;20180;-74
2021/10/23 06:08:55;;;;;;;12.13;2.40;;;;;;;6.86;nan;101158.56;5034046;28;20232;-74
2021/10/23 06:11:20;;;;;;;17.50;2.33;;;;;;;6.89;nan;101160.25;5033711;28;20551;-74
2021/10/23 06:13:45;;;;;;;12.67;2.77;;;;;;;6.97;nan;101159.97;5032630;28;20196;-73
2021/10/23 06:16:11;;;;;;;15.30;2.30;;;;;;;6.90;nan;101164.63;5050267;28;20183;-74
2021/10/23 06:18:36;;;;;;;14.17;2.70;;;;;;;7.01;nan;101156.31;5034743;28;20172;-72
2021/10/23 06:21:01;;;;;;;17.37;2.57;;;;;;;6.94;nan;101163.59;5034126;28;20168;-74
2021/10/23 06:23:31;;;;;;;15.60;2.77;;;;;;;7.04;nan;101173.00;5033874;28;20219;-75
2021/10/23 06:25:57;;;;;;;12.73;2.13;;;;;;;7.17;nan;101178.78;5033639;28;20168;-74
2021/10/23 06:28:22;;;;;;;10.73;2.43;;;;;;;7.34;nan;101186.16;5034888;28;20258;-72
2021/10/23 06:30:47;;;;;;;11.00;2.83;;;;;;;7.39;nan;101187.75;5066221;28;20271;-72
2021/10/23 06:33:12;;;;;;;12.27;1.90;;;;;;;7.48;nan;101194.56;5032896;28;20208;-73
2021/10/23 06:35:38;;;;;;;9.17;2.43;;;;;;;7.61;nan;101200.31;5033250;28;20180;-73
2021/10/23 06:38:03;;;;;;;14.20;2.47;;;;;;;7.69;nan;101183.16;5034510;28;20168;-72
2021/10/23 06:40:29;;;;;;;13.63;2.80;;;;;;;7.87;nan;101210.88;5034221;28;20554;-74
2021/10/23 06:42:54;;;;;;;9.93;1.90;;;;;;;7.98;nan;101215.81;5032916;28;20172;-72
2021/10/23 06:45:20;;;;;;;11.37;1.87;;;;;;;8.07;nan;101219.00;5034095;28;20167;-72
2021/10/23 06:47:45;;;;;;;11.23;1.90;;;;;;;8.12;nan;101240.09;5034427;28;20642;-73
2021/10/23 06:50:12;;;;;;;12.00;1.90;;;;;;;8.13;nan;101234.72;5032642;28;20270;-72
2021/10/23 06:52:37;;;;;;;9.53;2.40;;;;;;;8.16;nan;101226.63;5033013;28;20195;-72
2021/10/23 06:55:04;;;;;;;13.20;2.43;;;;;;;8.19;nan;101227.47;5034070;28;20179;-74
2021/10/23 06:57:29;;;;;;;15.27;3.40;;;;;;;8.31;nan;101235.84;5032556;28;20184;-73
2021/10/23 06:59:55;;;;;;;13.33;2.57;;;;;;;8.29;nan;101251.00;5034174;28;20180;-72
2021/10/23 07:02:20;;;;;;;11.30;2.37;;;;;;;8.52;nan;101246.63;5032790;28;20617;-73
2021/10/23 07:04:46;;;;;;;9.60;2.00;;;;;;;8.51;nan;101255.53;5032469;28;20219;-72
2021/10/23 07:07:11;;;;;;;10.53;2.30;;;;;;;8.52;nan;101260.81;5033089;28;20172;-72
2021/10/23 07:09:36;;;;;;;13.30;2.70;;;;;;;8.84;nan;101266.69;5034303;28;20180;-74
2021/10/23 07:12:02;;;;;;;11.07;2.30;;;;;;;8.65;nan;101271.88;5032718;28;20188;-72
2021/10/23 07:14:27;;;;;;;7.73;2.07;;;;;;;8.66;nan;101261.16;5032441;28;20192;-73
2021/10/23 07:16:53;;;;;;;12.33;3.00;;;;;;;8.46;nan;101280.53;5032633;28;20268;-72
2021/10/23 07:19:18;;;;;;;13.03;2.30;;;;;;;8.71;nan;101276.94;5033483;28;20172;-73
2021/10/23 07:21:43;;;;;;;16.43;2.33;;;;;;;8.72;nan;101279.56;5033328;28;20601;-72
2021/10/23 07:24:09;;;;;;;12.37;2.33;;;;;;;8.76;nan;101280.31;5031808;28;20631;-72
2021/10/23 07:26:35;;;;;;;13.37;2.27;;;;;;;8.77;nan;101280.25;5034755;28;20539;-73
2021/10/23 07:29:01;;;;;;;8.70;2.50;;;;;;;8.88;nan;101293.13;5032887;28;20175;-72
2021/10/23 07:31:27;;;;;;;10.27;2.13;;;;;;;8.91;nan;101306.31;5032820;28;20192;-74
2021/10/23 07:33:52;;;;;;;10.13;1.83;;;;;;;9.07;nan;101306.59;5066675;28;20215;-73
2021/10/23 07:36:17;;;;;;;10.97;2.27;;;;;;;9.01;nan;101301.53;5033466;28;20583;-73
2021/10/23 07:38:43;;;;;;;9.57;3.03;;;;;;;9.15;nan;101312.50;5032642;28;20208;-73
2021/10/23 07:41:08;;;;;;;13.33;2.40;;;;;;;9.12;nan;101309.97;5033372;28;20262;-73
2021/10/23 07:43:34;;;;;;;14.93;2.50;;;;;;;9.36;nan;101321.44;5033725;28;20574;-73
2021/10/23 07:45:59;;;;;;;20.87;2.90;;;;;;;9.36;nan;101308.13;5033520;28;20537;-73
2021/10/23 07:48:24;;;;;;;11.37;2.43;;;;;;;9.19;nan;101322.09;5032254;28;20175;-73
2021/10/23 07:50:50;;;;;;;11.40;2.10;;;;;;;9.31;nan;101323.44;5032321;28;20230;-74
2021/10/23 07:53:16;;;;;;;11.57;2.10;;;;;;;9.36;nan;101324.13;5033269;28;20208;-73
2021/10/23 07:55:41;;;;;;;12.30;2.23;;;;;;;9.51;nan;101330.59;5033558;28;20669;-73
2021/10/23 07:58:07;;;;;;;12.87;2.50;;;;;;;9.63;nan;101328.28;5033613;28;20180;-72
2021/10/23 08:00:32;;;;;;;13.20;2.77;;;;;;;9.59;nan;101334.69;5032655;28;20198;-73
2021/10/23 08:03:01;;;;;;;8.93;1.97;;;;;;;9.58;nan;101350.75;5033481;28;20362;-73
2021/10/23 08:05:27;;;;;;;14.00;1.87;;;;;;;9.93;nan;101362.63;5033026;28;20172;-70
2021/10/23 08:07:54;;;;;;;9.50;1.87;;;;;;;9.67;nan;101348.59;5032197;28;20176;-71
2021/10/23 08:10:21;;;;;;;10.53;2.30;;;;;;;9.84;nan;101360.34;5032174;28;20246;-72
2021/10/23 08:12:47;;;;;;;13.37;2.33;;;;;;;9.77;nan;101348.22;5031953;28;20287;-73
2021/10/23 08:15:12;;;;;;;14.60;3.07;;;;;;;9.64;nan;101353.16;5033303;28;20199;-73
2021/10/23 08:17:38;;;;;;;10.63;2.93;;;;;;;9.59;nan;101380.00;5032851;28;20174;-73
2021/10/23 08:20:05;;;;;;;14.20;3.20;;;;;;;9.90;nan;101370.75;5065406;28;20182;-72
2021/10/23 08:22:31;;;;;;;18.23;3.40;;;;;;;9.81;nan;101379.13;5032734;28;20183;-73
2021/10/23 08:24:56;;;;;;;17.57;4.50;;;;;;;9.54;nan;101397.97;5035913;28;20192;-75
2021/10/23 08:27:21;;;;;;;12.50;3.17;;;;;;;9.66;nan;101381.50;5034570;28;20171;-75
2021/10/23 08:29:46;;;;;;;13.43;3.47;;;;;;;9.94;nan;101383.88;5033929;28;20205;-74
2021/10/23 08:32:14;;;;;;;15.57;4.00;;;;;;;10.09;nan;101392.19;5033520;28;20229;-72
2021/10/23 08:34:39;;;;;;;13.97;3.30;;;;;;;10.00;nan;101388.97;5033483;28;20728;-72
2021/10/23 08:37:05;;;;;;;11.63;2.87;;;;;;;10.09;nan;101401.06;5034129;28;20170;-72
2021/10/23 08:39:30;;;;;;;10.90;2.63;;;;;;;10.21;nan;101392.56;5037510;28;20209;-73
2021/10/23 08:41:56;;;;;;;11.30;2.33;;;;;;;10.41;nan;101405.06;5036957;28;20170;-74
2021/10/23 08:44:22;;;;;;;17.97;2.97;;;;;;;10.50;nan;101406.47;5036773;28;20711;-74
2021/10/23 08:46:48;;;;;;;13.43;2.30;;;;;;;10.71;nan;101415.31;5035624;28;20305;-73
2021/10/23 08:49:13;;;;;;;15.73;2.57;;;;;;;10.57;nan;101421.28;5036896;28;20175;-74
2021/10/23 08:51:39;;;;;;;12.20;2.63;;;;;;;10.41;nan;101420.22;5035109;28;20202;-74
2021/10/23 08:54:04;;;;;;;10.03;2.00;;;;;;;10.71;nan;101428.66;5035376;28;20194;-74
2021/10/23 08:56:29;;;;;;;13.10;2.30;;;;;;;10.81;nan;101430.91;5036079;28;20534;-72
2021/10/23 08:58:55;;;;;;;8.90;2.00;;;;;;;10.87;nan;101422.59;5035489;28;20168;-73
2021/10/23 09:01:21;;;;;;;15.27;3.23;;;;;;;11.02;nan;101429.03;5036397;28;20175;-72
2021/10/23 09:03:47;;;;;;;14.07;2.30;;;;;;;11.08;nan;101444.78;5034713;28;20222;-72
2021/10/23 09:06:28;;;;;;;15.83;3.20;;;;;;;11.38;nan;101445.19;5018529;28;20228;-72
2021/10/23 09:09:10;;;;;;;13.80;2.40;;;;;;;11.11;nan;101441.97;5018603;28;20542;-73
2021/10/23 09:11:45;;;;;;;12.73;2.60;;;;;;;11.32;nan;101458.84;5035490;28;20595;-72
2021/10/23 09:14:32;;;;;;;13.90;2.20;;;;;;;11.29;nan;101461.66;5036494;28;20278;-73
2021/10/23 09:17:06;;;;;;;12.43;2.60;;;;;;;11.45;nan;101467.16;5035197;28;20182;-73
2021/10/23 09:19:32;;;;;;;15.40;2.57;;;;;;;11.42;nan;101457.47;5034670;28;20246;-73
2021/10/23 09:21:58;;;;;;;12.13;2.97;;;;;;;11.79;nan;101477.16;5037192;28;20178;-72
2021/10/23 09:24:23;;;;;;;11.50;2.03;;;;;;;11.46;nan;101474.22;5036088;28;20202;-74
2021/10/23 09:26:50;;;;;;;8.47;2.30;;;;;;;11.36;nan;101473.81;5036170;28;20176;-72
2021/10/23 09:29:20;;;;;;;12.37;2.03;;;;;;;11.39;nan;101472.78;5036625;28;20565;-72
2021/10/23 09:31:47;;;;;;;11.47;2.17;;;;;;;11.57;nan;101486.19;5034547;28;20341;-73
2021/10/23 09:34:16;;;;;;;10.87;2.20;;;;;;;11.73;nan;101491.66;5035746;28;20241;-73
2021/10/23 09:36:47;;;;;;;14.20;2.17;;;;;;;11.55;nan;101474.69;5034935;28;20167;-73
2021/10/23 09:39:22;;;;;;;12.63;2.57;;;;;;;11.70;nan;101493.63;5035808;28;20179;-73
2021/10/23 09:42:05;;;;;;;11.20;2.67;;;;;;;11.65;nan;101493.84;5035931;28;20622;-72
2021/10/23 09:44:30;;;;;;;11.93;2.43;;;;;;;12.08;nan;101494.50;5035941;28;20204;-72
2021/10/23 09:46:56;;;;;;;10.67;2.60;;;;;;;12.57;nan;101502.75;5036135;28;20642;-73
2021/10/23 09:49:25;;;;;;;13.10;2.30;;;;;;;12.72;nan;101484.13;5036083;28;20202;-72
2021/10/23 09:52:07;;;;;;;9.10;2.17;;;;;;;12.15;nan;101498.59;5035065;28;20606;-72
2021/10/23 09:54:34;;;;;;;14.07;2.47;;;;;;;12.23;nan;101493.72;5037220;28;20199;-73
2021/10/23 09:57:07;;;;;;;13.87;2.40;;;;;;;12.37;nan;101511.81;5038173;28;20175;-72
2021/10/23 09:59:37;;;;;;;9.50;2.17;;;;;;;12.34;nan;101502.13;5069127;28;20702;-73
2021/10/23 10:02:03;;;;;;;14.00;2.50;;;;;;;12.19;nan;101493.03;5053008;28;20201;-73
2021/10/23 10:04:29;;;;;;;17.80;2.10;;;;;;;12.14;nan;101515.59;5036475;28;20280;-73
2021/10/23 10:06:54;;;;;;;12.17;2.20;;;;;;;12.41;nan;101516.06;5034413;28;20200;-73
2021/10/23 10:09:24;;;;;;;22.00;3.07;;;;;;;12.73;nan;101525.16;5034213;28;20203;-72
2021/10/23 10:11:51;;;;;;;10.23;2.20;;;;;;;12.58;nan;101507.19;5050579;28;20207;-72
2021/10/23 10:14:19;;;;;;;14.53;2.87;;;;;;;12.50;nan;101511.09;5035597;28;20609;-73
2021/10/23 10:16:49;;;;;;;11.93;2.83;;;;;;;12.61;nan;101515.03;5035157;28;20176;-73
2021/10/23 10:19:15;;;;;;;9.97;2.27;;;;;;;12.69;nan;101489.63;5050400;28;20270;-73
2021/10/23 10:21:42;;;;;;;14.00;2.47;;;;;;;12.67;nan;101499.56;5034697;28;20168;-72
2021/10/23 10:24:28;;;;;;;15.23;2.77;;;;;;;13.01;nan;101527.31;5033329;28;20200;-72
2021/10/23 10:27:04;;;;;;;15.53;2.60;;;;;;;12.67;nan;101502.25;5035064;28;20157;-73
2021/10/23 10:29:54;;;;;;;11.97;2.30;;;;;;;13.31;nan;101536.41;5035138;28;20156;-73
2021/10/23 10:32:38;;;;;;;9.57;2.20;;;;;;;12.96;nan;101491.81;5035629;28;20188;-73
2021/10/23 10:43:01;;;;;;;14.20;2.47;;;;;;;12.20;nan;101540.25;5034915;28;20265;-73
2021/10/23 10:45:41;;;;;;;16.07;2.40;;;;;;;12.45;nan;101531.91;5033763;28;20196;-71
2021/10/23 10:48:29;;;;;;;14.63;2.30;;;;;;;12.61;nan;101542.69;5033194;28;20161;-71
2021/10/23 10:50:57;;;;;;;15.77;2.10;;;;;;;13.10;nan;101561.66;5034037;28;20662;-73
2021/10/23 10:53:27;;;;;;;12.90;3.00;;;;;;;12.99;nan;101556.81;5033051;28;20204;-72
2021/10/23 10:55:55;;;;;;;13.37;2.93;;;;;;;14.07;nan;101577.84;5016339;28;20176;-72
2021/10/23 10:58:40;;;;;;;13.33;2.00;;;;;;;14.18;nan;101582.63;5032374;28;20638;-73
2021/10/23 11:01:13;;;;;;;11.20;2.40;;;;;;;15.08;nan;101606.13;5033898;28;20207;-73
2021/10/23 11:03:43;;;;;;;11.43;2.37;;;;;;;16.01;nan;101611.19;5032327;28;20196;-73
2021/10/23 11:06:31;;;;;;;15.77;2.23;;;;;;;15.55;nan;101587.09;5032627;28;20175;-72
2021/10/23 11:11:42;;;;;;;10.70;2.40;;;;;;;15.79;nan;101601.78;5033938;28;20243;-71
2021/10/23 11:14:08;;;;;;;12.90;2.33;;;;;;;14.35;nan;101566.44;5035064;28;20195;-73
2021/10/23 11:16:34;;;;;;;11.70;2.37;;;;;;;13.61;nan;101568.78;5035328;28;20518;-72
2021/10/23 11:18:59;;;;;;;14.20;3.10;;;;;;;13.23;nan;101568.13;5034364;28;20218;-72
2021/10/23 11:21:26;;;;;;;11.33;2.57;;;;;;;16.92;nan;101620.53;5032345;28;20180;-72
2021/10/23 11:23:56;;;;;;;7.03;2.20;;;;;;;18.46;nan;101612.38;5033085;28;20196;-71
2021/10/23 11:26:21;;;;;;;11.50;2.47;;;;;;;19.23;nan;101600.25;5032629;28;20180;-73
2021/10/23 11:28:47;;;;;;;7.27;2.00;;;;;;;17.09;nan;101555.50;5016091;28;20184;-73
2021/10/23 11:31:17;;;;;;;11.37;2.63;;;;;;;16.82;nan;101596.03;5032664;28;20172;-72
2021/10/23 11:33:42;;;;;;;13.07;2.53;;;;;;;16.37;nan;101578.34;5032619;28;20199;-72
2021/10/23 11:36:17;;;;;;;10.83;2.70;;;;;;;16.53;nan;101579.06;5033090;28;20290;-73
2021/10/23 11:38:50;;;;;;;11.87;2.83;;;;;;;17.73;nan;101602.34;5035279;28;20630;-73
2021/10/23 11:41:24;;;;;;;10.87;2.07;;;;;;;16.56;nan;101606.66;5055624;28;20180;-73
2021/10/23 11:43:52;;;;;;;12.73;2.37;;;;;;;14.87;nan;101562.59;5060562;22;20230;-68
2021/10/23 11:46:17;;;;;;;14.47;2.40;;;;;;;15.94;nan;101603.50;5052587;28;20555;-68
2021/10/23 11:48:42;;;;;;;15.97;3.03;;;;;;;15.17;nan;101581.38;5052520;28;20187;-69
2021/10/23 11:51:08;;;;;;;11.33;2.30;;;;;;;12.70;nan;101542.25;5053283;28;20514;-69